createdAt,value
2022-09-13T00:02:16.310Z,100781.22
2022-09-13T00:04:43.029Z,100749.91
2022-09-13T00:07:09.768Z,100714.81
2022-09-13T00:09:37.354Z,100684.13
2022-09-13T00:12:04.164Z,100649.09
2022-09-13T00:14:30.873Z,100628.72
2022-09-13T00:16:57.472Z,100604.97
2022-09-13T00:19:24.140Z,100576.50
2022-09-13T00:21:50.893Z,100579.84
2022-09-13T00:24:17.552Z,100576.69
2022-09-13T00:26:44.194Z,100580.88
2022-09-13T00:29:10.855Z,100581.91
2022-09-13T00:31:37.572Z,100551.66
2022-09-13T00:34:04.250Z,100534.81
2022-09-13T00:36:30.962Z,100505.09
2022-09-13T00:38:58.255Z,100483.94
2022-09-13T00:41:25.064Z,100478.38
2022-09-13T00:43:55.713Z,100456.47
2022-09-13T00:46:45.603Z,100441.38
2022-09-13T00:49:18.596Z,100420.34
2022-09-13T00:51:50.928Z,100399.13
2022-09-13T00:54:21.179Z,100394.97
2022-09-13T00:56:55.445Z,100376.31
2022-09-13T01:00:08.147Z,100358.56
2022-09-13T01:02:35.210Z,100353.56
2022-09-13T01:05:03.337Z,100334.25
2022-09-13T01:07:30.402Z,100315.31
2022-09-13T01:09:57.515Z,100317.09
2022-09-13T01:12:36.478Z,100308.16
2022-09-13T01:15:06.228Z,100289.22
2022-09-13T01:17:33.923Z,100276.16
2022-09-13T01:20:02.858Z,100262.69
2022-09-13T01:22:51.301Z,100244.00
2022-09-13T01:25:45.363Z,100222.78
2022-09-13T01:28:26.935Z,100219.56
2022-09-13T01:31:14.552Z,100203.56
2022-09-13T01:33:59.531Z,100184.50
2022-09-13T01:36:38.025Z,100157.91
2022-09-13T01:39:08.221Z,100169.72
2022-09-13T01:41:43.766Z,100161.63
2022-09-13T01:44:29.658Z,100156.09
2022-09-13T01:47:14.992Z,100143.06
2022-09-13T01:49:51.844Z,100142.03
2022-09-13T01:52:37.420Z,100115.91
2022-09-13T01:55:18.102Z,100103.84
2022-09-13T01:58:02.227Z,100082.19
2022-09-13T02:00:36.857Z,100080.28
2022-09-13T02:03:29.653Z,100053.56
2022-09-13T02:06:08.623Z,100029.63
2022-09-13T02:08:42.523Z,100011.31
2022-09-13T02:11:15.066Z,99996.06
2022-09-13T02:13:48.583Z,99983.16
2022-09-13T02:16:27.820Z,99972.63
2022-09-13T02:18:59.523Z,99962.25
2022-09-13T02:21:34.683Z,99952.66
2022-09-13T02:24:03.547Z,99936.00
2022-09-13T02:26:34.811Z,99929.50
2022-09-13T02:29:07.910Z,99914.25
2022-09-13T02:31:39.970Z,99940.44
2022-09-13T02:34:14.323Z,99942.69
2022-09-13T02:36:43.596Z,99935.78
2022-09-13T02:39:16.062Z,99926.72
2022-09-13T02:41:46.821Z,99921.44
2022-09-13T02:44:22.787Z,99910.75
2022-09-13T02:46:55.585Z,99851.06
2022-09-13T02:49:57.620Z,99853.09
2022-09-13T02:52:34.733Z,99825.56
2022-09-13T02:55:40.364Z,99808.25
2022-09-13T02:58:23.593Z,99792.84
2022-09-13T03:00:53.258Z,99780.34
2022-09-13T03:03:20.967Z,99762.88
2022-09-13T03:05:47.770Z,99729.53
2022-09-13T03:08:17.145Z,99717.22
2022-09-13T03:10:59.583Z,99688.47
2022-09-13T03:13:48.126Z,99684.16
2022-09-13T03:16:30.151Z,99668.97
2022-09-13T03:19:21.664Z,99668.28
2022-09-13T03:21:48.190Z,99651.16
2022-09-13T03:24:26.208Z,99639.69
2022-09-13T03:27:17.447Z,99645.50
2022-09-13T03:29:56.256Z,99649.78
2022-09-13T03:32:48.776Z,99623.59
2022-09-13T03:35:21.109Z,99597.94
2022-09-13T03:37:58.132Z,99600.66
2022-09-13T03:40:48.240Z,99598.59
2022-09-13T03:43:35.737Z,99577.22
2022-09-13T03:46:10.211Z,99557.53
2022-09-13T03:48:40.634Z,99548.28
2022-09-13T03:51:08.592Z,99548.97
2022-09-13T03:53:41.602Z,99531.84
2022-09-13T03:56:20.416Z,99520.22
2022-09-13T03:58:48.052Z,99508.09
2022-09-13T04:01:20.287Z,99489.59
2022-09-13T04:03:47.197Z,99463.75
2022-09-13T04:06:13.848Z,99428.94
2022-09-13T04:08:42.696Z,99433.59
2022-09-13T04:11:09.651Z,99437.84
2022-09-13T04:13:39.262Z,99425.53
2022-09-13T04:16:09.294Z,99400.38
2022-09-13T04:18:36.206Z,99387.81
2022-09-13T04:21:06.580Z,99386.41
2022-09-13T04:23:33.252Z,99399.69
2022-09-13T04:26:04.918Z,99384.59
2022-09-13T04:28:31.730Z,99377.91
2022-09-13T04:31:09.856Z,99381.66
2022-09-13T04:33:38.487Z,99377.91
2022-09-13T04:36:05.409Z,99350.38
2022-09-13T04:38:32.152Z,99350.69
2022-09-13T04:40:59.330Z,99350.69
2022-09-13T04:43:26.111Z,99339.38
2022-09-13T04:45:54.990Z,99334.41
2022-09-13T04:48:21.782Z,99332.03
2022-09-13T04:50:49.101Z,99329.50
2022-09-13T04:53:15.832Z,99332.56
2022-09-13T04:55:42.518Z,99324.88
2022-09-13T04:58:09.209Z,99329.88
2022-09-13T05:00:35.932Z,99328.56
2022-09-13T05:03:02.644Z,99324.28
2022-09-13T05:05:30.540Z,99290.91
2022-09-13T05:07:57.287Z,99287.13
2022-09-13T05:10:24.430Z,99314.50
2022-09-13T05:12:52.090Z,99316.94
2022-09-13T05:15:18.784Z,99307.34
2022-09-13T05:17:46.676Z,99300.81
2022-09-13T05:20:13.742Z,99298.66
2022-09-13T05:22:40.587Z,99306.31
2022-09-13T05:25:08.276Z,99307.34
2022-09-13T05:27:35.307Z,99307.34
2022-09-13T05:30:02.013Z,99295.19
2022-09-13T05:32:30.988Z,99295.72
2022-09-13T05:34:57.662Z,99298.09
2022-09-13T05:37:24.445Z,99300.66
2022-09-13T05:40:10.773Z,99312.13
2022-09-13T05:42:38.569Z,99314.28
2022-09-13T05:45:06.873Z,99288.91
2022-09-13T05:47:41.930Z,99302.44
2022-09-13T05:50:11.615Z,99291.50
2022-09-13T05:58:59.073Z,99281.03
2022-09-13T06:01:39.783Z,99284.31
2022-09-13T06:04:09.269Z,99288.44
2022-09-13T06:06:37.371Z,99296.84
2022-09-13T06:09:20.994Z,99302.88
2022-09-13T06:11:48.309Z,99302.19
2022-09-13T06:14:16.638Z,99313.31
2022-09-13T06:16:48.909Z,99307.31
2022-09-13T06:19:15.600Z,99305.25
2022-09-13T06:21:42.500Z,99306.44
2022-09-13T06:24:09.340Z,99311.31
2022-09-13T06:26:39.829Z,99298.13
2022-09-13T06:29:11.204Z,99298.19
2022-09-13T06:31:39.200Z,99281.19
2022-09-13T06:34:15.926Z,99274.13
2022-09-13T06:36:42.633Z,99279.19
2022-09-13T06:39:09.374Z,99307.56
2022-09-13T06:41:37.539Z,99307.03
2022-09-13T06:44:09.183Z,99342.41
2022-09-13T06:46:38.014Z,99359.97
2022-09-13T06:49:06.740Z,99387.91
2022-09-13T06:51:34.929Z,99407.31
2022-09-13T06:54:04.007Z,99419.91
2022-09-13T06:56:34.630Z,99437.03
2022-09-13T06:59:08.314Z,99458.75
2022-09-13T07:01:41.803Z,99477.22
2022-09-13T07:04:19.242Z,99490.06
2022-09-13T07:06:49.685Z,99516.72
2022-09-13T07:09:20.997Z,99528.34
2022-09-13T07:11:49.961Z,99546.31
2022-09-13T07:14:20.737Z,99557.38
2022-09-13T07:16:49.894Z,99569.22
2022-09-13T07:19:20.433Z,99589.28
2022-09-13T07:21:54.210Z,99616.28
2022-09-13T07:24:25.666Z,99646.56
2022-09-13T07:26:54.274Z,99679.56
2022-09-13T07:29:24.600Z,99728.25
2022-09-13T07:31:54.763Z,99760.03
2022-09-13T07:34:24.880Z,99811.69
2022-09-13T07:36:53.371Z,99839.81
2022-09-13T07:39:24.914Z,99864.50
2022-09-13T07:41:54.129Z,99897.19
2022-09-13T07:44:21.154Z,99937.00
2022-09-13T07:46:48.389Z,100020.22
2022-09-13T07:49:18.124Z,100064.25
2022-09-13T07:51:45.156Z,100098.56
2022-09-13T07:54:15.362Z,100148.00
2022-09-13T07:56:43.557Z,100197.94
2022-09-13T07:59:15.814Z,100242.13
2022-09-13T08:01:44.864Z,100266.16
2022-09-13T08:04:14.475Z,100316.66
2022-09-13T08:06:43.408Z,100341.25
2022-09-13T08:09:11.310Z,100364.63
2022-09-13T08:11:40.914Z,100402.84
2022-09-13T08:14:10.100Z,100434.16
2022-09-13T08:16:37.219Z,100453.25
2022-09-13T08:19:07.117Z,100480.13
2022-09-13T08:21:37.281Z,100487.47
2022-09-13T08:24:06.337Z,100515.91
2022-09-13T08:26:35.433Z,100537.75
2022-09-13T08:29:05.759Z,100556.75
2022-09-13T08:31:32.871Z,100575.81
2022-09-13T08:33:59.993Z,100567.53
2022-09-13T08:36:28.814Z,100574.50
2022-09-13T08:38:59.206Z,100588.16
2022-09-13T08:41:45.410Z,100601.03
2022-09-13T08:44:31.683Z,100612.81
2022-09-13T08:47:22.191Z,100623.63
2022-09-13T08:49:56.104Z,100635.84
2022-09-13T08:52:53.753Z,100639.63
2022-09-13T08:55:26.532Z,100643.16
2022-09-13T08:57:59.780Z,100643.09
2022-09-13T09:00:41.221Z,100656.69
2022-09-13T09:03:18.124Z,100669.63
2022-09-13T09:05:50.571Z,100637.56
2022-09-13T09:08:23.270Z,100638.59
2022-09-13T09:10:53.421Z,100633.69
2022-09-13T09:13:38.046Z,100627.53
2022-09-13T09:16:28.878Z,100634.59
2022-09-13T09:19:00.140Z,100633.72
2022-09-13T09:21:28.458Z,100634.59
2022-09-13T09:23:56.022Z,100629.25
2022-09-13T09:26:30.939Z,100612.88
2022-09-13T09:29:10.967Z,100639.22
2022-09-13T09:32:11.680Z,100641.63
2022-09-13T09:35:05.447Z,100650.91
2022-09-13T09:37:38.750Z,100661.56
2022-09-13T09:40:14.339Z,100658.91
2022-09-13T09:42:47.730Z,100655.47
2022-09-13T09:45:35.495Z,100650.50
2022-09-13T09:48:09.775Z,100672.81
2022-09-13T09:50:41.784Z,100666.81
2022-09-13T09:53:17.062Z,100651.78
2022-09-13T09:56:00.564Z,100639.38
2022-09-13T09:58:42.918Z,100628.38
2022-09-13T10:01:33.507Z,100616.66
2022-09-13T10:04:11.398Z,100611.16
2022-09-13T10:06:40.462Z,100614.78
2022-09-13T10:09:14.921Z,100597.78
2022-09-13T10:11:48.784Z,100631.78
2022-09-13T10:14:35.336Z,100642.00
2022-09-13T10:17:28.331Z,100615.13
2022-09-13T10:20:01.917Z,100616.84
2022-09-13T10:22:31.519Z,100612.06
2022-09-13T10:25:24.221Z,100595.31
2022-09-13T10:27:58.231Z,100560.53
2022-09-13T10:30:39.525Z,100585.84
2022-09-13T10:33:20.493Z,100573.13
2022-09-13T10:35:55.101Z,100578.81
2022-09-13T10:38:32.914Z,100591.16
2022-09-13T10:41:03.456Z,100555.56
2022-09-13T10:43:32.951Z,100549.53
2022-09-13T10:46:03.658Z,100559.50
2022-09-13T10:48:44.605Z,100566.59
2022-09-13T10:51:31.397Z,100527.53
2022-09-13T10:54:09.045Z,100527.63
2022-09-13T10:56:36.796Z,100571.75
2022-09-13T10:59:29.781Z,100594.56
2022-09-13T11:02:58.467Z,100614.78
2022-09-13T11:05:37.294Z,100614.22
2022-09-13T11:08:11.404Z,100569.31
2022-09-13T11:10:57.459Z,100592.25
2022-09-13T11:13:24.047Z,100592.47
2022-09-13T11:16:05.687Z,100572.16
2022-09-13T11:18:32.968Z,100578.59
2022-09-13T11:21:32.593Z,100565.72
2022-09-13T11:24:30.248Z,100577.78
2022-09-13T11:27:02.469Z,100574.19
2022-09-13T11:29:51.616Z,100584.47
2022-09-13T11:32:43.051Z,100604.47
2022-09-13T11:35:22.780Z,100631.81
2022-09-13T11:37:56.393Z,100623.72
2022-09-13T11:40:28.855Z,100637.56
2022-09-13T11:43:24.008Z,100650.88
2022-09-13T11:46:05.316Z,100642.03
2022-09-13T11:48:56.804Z,100645.59
2022-09-13T11:51:43.769Z,100669.66
2022-09-13T11:54:34.860Z,100680.81
2022-09-13T11:57:11.248Z,100700.06
2022-09-13T11:59:45.061Z,100713.03
2022-09-13T12:02:19.971Z,100697.63
2022-09-13T12:05:21.695Z,100683.84
2022-09-13T12:07:55.627Z,100696.38
2022-09-13T12:10:57.712Z,100709.44
2022-09-13T12:13:31.110Z,100706.03
2022-09-13T12:16:06.328Z,100711.91
2022-09-13T12:18:41.602Z,100709.25
2022-09-13T12:21:19.288Z,100699.69
2022-09-13T12:24:06.306Z,100696.78
2022-09-13T12:26:59.248Z,100658.50
2022-09-13T12:29:49.079Z,100687.22
2022-09-13T12:32:17.061Z,100705.63
2022-09-13T12:35:06.525Z,100728.34
2022-09-13T12:37:45.146Z,100716.84
2022-09-13T12:40:39.614Z,100681.59
2022-09-13T12:43:34.430Z,100685.59
2022-09-13T12:46:19.968Z,100668.84
2022-09-13T12:49:05.218Z,100648.91
2022-09-13T12:51:50.428Z,100632.50
2022-09-13T12:54:38.925Z,100611.16
2022-09-13T12:57:08.922Z,100595.16
2022-09-13T12:59:44.905Z,100570.34
2022-09-13T13:02:33.911Z,100569.25
2022-09-13T13:05:18.102Z,100529.22
2022-09-13T13:07:53.313Z,100553.81
2022-09-13T13:10:34.341Z,100568.13
2022-09-13T13:13:31.239Z,100587.06
2022-09-13T13:16:02.776Z,100601.16
2022-09-13T13:18:31.388Z,100625.97
2022-09-13T13:20:58.792Z,100623.53
2022-09-13T13:23:30.137Z,100635.94
2022-09-13T13:26:18.447Z,100630.06
2022-09-13T13:28:48.123Z,100638.94
2022-09-13T13:31:24.036Z,100672.41
2022-09-13T13:33:59.527Z,100665.84
2022-09-13T13:36:40.393Z,100666.22
2022-09-13T13:39:25.432Z,100662.94
2022-09-13T13:41:57.943Z,100671.59
2022-09-13T13:44:28.357Z,100674.16
2022-09-13T13:47:07.325Z,100676.56
2022-09-13T13:49:35.187Z,100673.44
2022-09-13T13:52:08.141Z,100675.91
2022-09-13T13:54:49.865Z,100656.31
2022-09-13T13:57:35.616Z,100644.94
2022-09-13T14:00:16.500Z,100619.97
2022-09-13T14:02:53.598Z,100633.16
2022-09-13T14:05:33.886Z,100666.91
2022-09-13T14:08:19.288Z,100671.97
2022-09-13T14:11:02.690Z,100690.63
2022-09-13T14:13:44.557Z,100686.88
2022-09-13T14:16:49.717Z,100694.63
2022-09-13T14:19:29.325Z,100692.06
2022-09-13T14:22:04.898Z,100704.38
2022-09-13T14:24:39.848Z,100672.25
2022-09-13T14:27:09.535Z,100652.63
2022-09-13T14:29:37.221Z,100665.59
2022-09-13T14:32:07.221Z,100646.47
2022-09-13T14:34:37.545Z,100627.88
2022-09-13T14:37:18.523Z,100604.13
2022-09-13T14:40:00.460Z,100604.97
2022-09-13T14:42:37.767Z,100630.81
2022-09-13T14:45:05.561Z,100609.63
2022-09-13T14:47:41.306Z,100623.09
2022-09-13T14:50:16.051Z,100628.00
2022-09-13T14:52:58.254Z,100661.56
2022-09-13T14:55:33.330Z,100668.06
2022-09-13T14:58:16.013Z,100674.78
2022-09-13T15:00:51.078Z,100690.41
2022-09-13T15:03:20.344Z,100698.69
2022-09-13T15:06:02.315Z,100685.50
2022-09-13T15:08:35.681Z,100682.72
2022-09-13T15:11:06.678Z,100682.84
2022-09-13T15:13:34.612Z,100683.81
2022-09-13T15:16:18.763Z,100678.66
2022-09-13T15:18:45.453Z,100677.38
2022-09-13T15:21:18.660Z,100673.53
2022-09-13T15:23:51.707Z,100686.25
2022-09-13T15:26:25.552Z,100688.38
2022-09-13T15:28:57.777Z,100668.72
2022-09-13T15:31:31.112Z,100680.84
2022-09-13T15:34:16.645Z,100685.94
2022-09-13T15:36:45.061Z,100687.34
2022-09-13T15:39:23.564Z,100683.00
2022-09-13T15:42:00.656Z,100683.50
2022-09-13T15:44:29.952Z,100691.03
2022-09-13T15:47:02.413Z,100704.78
2022-09-13T15:49:30.840Z,100701.34
2022-09-13T15:52:00.650Z,100705.50
2022-09-13T15:54:34.867Z,100698.22
2022-09-13T15:57:02.722Z,100700.56
2022-09-13T15:59:29.460Z,100707.66
2022-09-13T16:01:56.672Z,100712.53
2022-09-13T16:04:23.537Z,100707.50
2022-09-13T16:06:50.210Z,100701.78
2022-09-13T16:09:21.423Z,100698.22
2022-09-13T16:11:49.859Z,100699.56
2022-09-13T16:14:18.538Z,100696.06
2022-09-13T16:16:46.657Z,100688.34
2022-09-13T16:19:21.107Z,100690.88
2022-09-13T16:21:49.056Z,100688.88
2022-09-13T16:24:16.869Z,100680.56
2022-09-13T16:26:43.684Z,100697.53
2022-09-13T16:29:11.856Z,100682.31
2022-09-13T16:31:38.712Z,100680.97
2022-09-13T16:34:05.578Z,100669.91
2022-09-13T16:36:34.219Z,100685.69
2022-09-13T16:39:01.876Z,100687.09
2022-09-13T16:41:29.949Z,100689.41
2022-09-13T16:43:57.336Z,100690.41
2022-09-13T16:46:24.371Z,100684.34
2022-09-13T16:48:56.560Z,100687.34
2022-09-13T16:51:24.328Z,100682.63
2022-09-13T16:53:52.608Z,100673.69
2022-09-13T16:56:23.160Z,100671.97
2022-09-13T16:58:52.567Z,100673.47
2022-09-13T17:01:31.340Z,100675.50
2022-09-13T17:03:58.299Z,100682.47
2022-09-13T17:06:26.714Z,100678.81
2022-09-13T17:08:56.916Z,100687.63
2022-09-13T17:11:26.268Z,100693.47
2022-09-13T17:13:53.722Z,100658.63
2022-09-13T17:16:26.647Z,100644.41
2022-09-13T17:18:53.945Z,100626.81
2022-09-13T17:21:21.828Z,100614.44
2022-09-13T17:23:49.156Z,100601.59
2022-09-13T17:26:16.119Z,100595.41
2022-09-13T17:28:42.772Z,100577.56
2022-09-13T17:31:09.846Z,100563.31
2022-09-13T17:33:37.633Z,100561.00
2022-09-13T17:36:09.520Z,100548.63
2022-09-13T17:38:37.099Z,100540.19
2022-09-13T17:41:25.354Z,100532.41
2022-09-13T17:43:52.460Z,100522.63
2022-09-13T17:46:23.183Z,100515.44
2022-09-13T17:48:54.859Z,100501.47
2022-09-13T17:51:24.669Z,100491.53
2022-09-13T17:53:56.454Z,100484.31
2022-09-13T17:56:37.294Z,100482.41
2022-09-13T17:59:15.677Z,100468.41
2022-09-13T18:01:45.093Z,100461.63
2022-09-13T18:04:13.805Z,100453.28
2022-09-13T18:06:43.315Z,100447.63
2022-09-13T18:09:14.800Z,100436.06
2022-09-13T18:11:46.887Z,100424.28
2022-09-13T18:14:24.280Z,100412.69
2022-09-13T18:20:13.654Z,100403.91
2022-09-13T18:25:30.034Z,100390.72
2022-09-13T18:28:02.569Z,100379.75
2022-09-13T18:30:33.145Z,100369.56
2022-09-13T18:33:00.860Z,100363.94
2022-09-13T18:35:27.968Z,100372.16
2022-09-13T18:37:56.530Z,100365.50
2022-09-13T18:40:23.228Z,100351.63
2022-09-13T18:42:51.900Z,100347.03
2022-09-13T18:45:27.441Z,100358.44
2022-09-13T18:47:54.150Z,100349.78
2022-09-13T18:50:20.814Z,100363.28
2022-09-13T18:52:47.481Z,100357.50
2022-09-13T18:55:14.230Z,100359.22
2022-09-13T18:57:40.900Z,100360.25
2022-09-13T19:00:14.954Z,100357.81
2022-09-13T19:03:02.052Z,100359.84
2022-09-13T19:05:30.945Z,100359.44
2022-09-13T19:07:57.684Z,100369.06
2022-09-13T19:10:24.824Z,100364.91
2022-09-13T19:12:51.624Z,100365.75
2022-09-13T19:15:18.337Z,100369.28
2022-09-13T19:17:45.010Z,100374.03
2022-09-13T19:20:11.809Z,100379.56
2022-09-13T19:22:38.585Z,100380.56
2022-09-13T19:25:05.690Z,100377.59
2022-09-13T19:27:32.385Z,100375.88
2022-09-13T19:29:59.375Z,100373.75
2022-09-13T19:32:26.080Z,100378.78
2022-09-13T19:34:52.707Z,100371.16
2022-09-13T19:37:19.534Z,100370.91
2022-09-13T19:39:47.364Z,100362.94
2022-09-13T19:42:15.250Z,100364.50
2022-09-13T19:44:41.970Z,100366.25
2022-09-13T19:48:02.304Z,100363.81
2022-09-13T19:49:59.166Z,100364.66
2022-09-13T19:52:27.129Z,100359.59
2022-09-13T19:54:58.534Z,100356.53
2022-09-13T19:57:25.773Z,100358.69
2022-09-13T19:59:58.205Z,100359.69
2022-09-13T20:02:27.538Z,100352.19
2022-09-13T20:05:00.857Z,100344.28
2022-09-13T20:07:27.608Z,100346.00
2022-09-13T20:09:55.149Z,100344.16
2022-09-13T20:12:23.815Z,100340.41
2022-09-13T20:14:50.535Z,100338.06
2022-09-13T20:17:21.018Z,100334.00
2022-09-13T20:19:50.151Z,100325.41
2022-09-13T20:22:17.145Z,100332.28
2022-09-13T20:24:43.901Z,100336.88
2022-09-13T20:27:10.772Z,100333.13
2022-09-13T20:29:38.188Z,100339.19
2022-09-13T20:32:05.080Z,100328.66
2022-09-13T20:34:31.907Z,100327.66
2022-09-13T20:36:58.584Z,100320.47
2022-09-13T20:39:25.221Z,100329.69
2022-09-13T20:41:52.119Z,100319.53
2022-09-13T20:44:18.832Z,100318.66
2022-09-13T20:46:45.528Z,100321.56
2022-09-13T20:49:12.321Z,100311.63
2022-09-13T20:51:39.112Z,100302.94
2022-09-13T20:54:06.557Z,100305.22
2022-09-13T20:56:34.605Z,100298.88
2022-09-13T20:59:01.861Z,100295.13
2022-09-13T21:01:30.068Z,100291.38
2022-09-13T21:03:57.480Z,100290.22
2022-09-13T21:06:27.129Z,100291.25
2022-09-13T21:08:56.474Z,100291.38
2022-09-13T21:11:29.096Z,100292.25
2022-09-13T21:14:01.522Z,100292.66
2022-09-13T21:16:30.714Z,100282.41
2022-09-13T21:18:57.470Z,100286.47
2022-09-13T21:21:30.646Z,100289.75
2022-09-13T21:24:00.447Z,100292.66
2022-09-13T21:26:30.127Z,100290.22
2022-09-13T21:28:58.717Z,100288.50
2022-09-13T21:31:28.295Z,100288.34
2022-09-13T21:33:58.275Z,100289.03
2022-09-13T21:36:26.858Z,100289.59
2022-09-13T21:38:55.828Z,100289.22
2022-09-13T21:41:24.408Z,100280.13
2022-09-13T21:43:51.594Z,100290.53
2022-09-13T21:46:24.265Z,100287.94
2022-09-13T21:48:54.480Z,100287.09
2022-09-13T21:51:26.768Z,100291.53
2022-09-13T21:53:59.947Z,100283.03
2022-09-13T21:56:32.186Z,100290.53
2022-09-13T21:59:02.326Z,100290.53
2022-09-13T22:01:32.339Z,100289.53
2022-09-13T22:03:59.794Z,100283.16
2022-09-13T22:06:30.276Z,100279.97
2022-09-13T22:09:01.158Z,100277.94
2022-09-13T22:11:32.007Z,100284.75
2022-09-13T22:14:02.423Z,100287.94
2022-09-13T22:16:31.598Z,100281.06
2022-09-13T22:19:08.057Z,100288.56
2022-09-13T22:21:39.964Z,100285.59
2022-09-13T22:24:08.523Z,100291.19
2022-09-13T22:26:39.497Z,100288.63
2022-09-13T22:29:07.555Z,100285.50
2022-09-13T22:31:37.220Z,100283.91
2022-09-13T22:34:05.061Z,100284.63
2022-09-13T22:36:32.587Z,100294.53
2022-09-13T22:39:02.962Z,100295.41
2022-09-13T22:41:31.878Z,100296.13
2022-09-13T22:43:59.898Z,100296.84
2022-09-13T22:46:39.434Z,100304.16
2022-09-13T22:49:07.193Z,100304.47
2022-09-13T22:51:34.204Z,100311.13
2022-09-13T22:54:06.246Z,100312.13
2022-09-13T22:56:35.821Z,100321.06
2022-09-13T22:59:07.440Z,100321.50
2022-09-13T23:01:34.981Z,100324.81
2022-09-13T23:04:02.162Z,100333.63
2022-09-13T23:06:29.601Z,100337.97
2022-09-13T23:09:00.017Z,100337.56
2022-09-13T23:11:27.952Z,100343.22
2022-09-13T23:13:58.219Z,100342.63
2022-09-13T23:16:27.591Z,100341.50
2022-09-13T23:18:55.836Z,100348.97
2022-09-13T23:21:26.834Z,100352.44
2022-09-13T23:23:54.283Z,100347.84
2022-09-13T23:26:24.832Z,100347.13
2022-09-13T23:28:56.803Z,100345.84
2022-09-13T23:31:26.627Z,100343.56
2022-09-13T23:33:56.234Z,100343.84
2022-09-13T23:36:26.534Z,100341.72
2022-09-13T23:38:55.681Z,100343.31
2022-09-13T23:41:23.166Z,100333.81
2022-09-13T23:43:49.941Z,100342.59
2022-09-13T23:46:17.330Z,100345.44
2022-09-13T23:48:44.897Z,100331.53
2022-09-13T23:51:14.440Z,100324.50
2022-09-13T23:53:41.600Z,100323.91
2022-09-13T23:56:09.698Z,100313.25
2022-09-13T23:58:38.051Z,100315.69
